createdAt,value
2019-02-06T00:00:31.555Z,1.10
2019-02-06T00:04:36.750Z,1.10
2019-02-06T00:08:41.572Z,1.10
2019-02-06T00:12:47.022Z,1.00
2019-02-06T00:16:51.962Z,1.10
2019-02-06T00:20:57.097Z,1.10
2019-02-06T00:25:01.926Z,1.10
2019-02-06T00:29:06.761Z,1.10
2019-02-06T00:33:11.593Z,1.10
2019-02-06T00:37:16.401Z,1.10
2019-02-06T00:41:21.236Z,1.10
2019-02-06T00:45:26.235Z,1.10
2019-02-06T00:49:31.064Z,1.10
2019-02-06T00:53:36.867Z,1.20
2019-02-06T00:57:42.037Z,1.20
2019-02-06T01:01:46.951Z,1.20
2019-02-06T01:05:51.836Z,1.20
2019-02-06T01:09:56.859Z,1.20
2019-02-06T01:14:01.850Z,1.20
2019-02-06T01:18:06.644Z,1.20
2019-02-06T01:22:11.476Z,1.20
2019-02-06T01:26:16.300Z,1.20
2019-02-06T01:30:23.324Z,1.20
2019-02-06T01:34:28.157Z,1.10
2019-02-06T01:38:32.964Z,1.10
2019-02-06T01:42:38.248Z,1.00
2019-02-06T01:46:43.172Z,1.00
2019-02-06T01:50:48.014Z,0.90
2019-02-06T01:54:53.813Z,0.90
2019-02-06T01:58:58.651Z,0.90
2019-02-06T02:03:03.479Z,0.90
2019-02-06T02:07:08.296Z,0.80
2019-02-06T02:11:13.220Z,0.80
2019-02-06T02:15:19.079Z,0.90
2019-02-06T02:19:23.883Z,0.90
2019-02-06T02:23:28.720Z,0.80
2019-02-06T02:27:34.000Z,0.80
2019-02-06T02:31:39.246Z,0.60
2019-02-06T02:35:44.212Z,0.50
2019-02-06T02:39:49.079Z,0.30
2019-02-06T02:43:54.947Z,0.20
2019-02-06T02:47:59.895Z,0.00
2019-02-06T02:52:04.899Z,-0.20
2019-02-06T02:56:12.244Z,-0.40
2019-02-06T03:00:28.295Z,-0.50
2019-02-06T03:04:33.284Z,-0.60
2019-02-06T03:08:38.111Z,-0.70
2019-02-06T03:12:42.975Z,-0.80
2019-02-06T03:16:47.952Z,-1.00
2019-02-06T03:20:52.850Z,-1.10
2019-02-06T03:24:57.823Z,-1.20
2019-02-06T03:29:02.821Z,-1.20
2019-02-06T03:33:08.032Z,-1.30
2019-02-06T03:37:12.907Z,-1.40
2019-02-06T03:41:17.838Z,-1.50
2019-02-06T03:45:22.783Z,-1.60
2019-02-06T03:49:27.713Z,-1.70
2019-02-06T03:53:32.535Z,-1.80
2019-02-06T03:57:37.372Z,-1.90
2019-02-06T04:01:43.164Z,-1.90
2019-02-06T04:05:47.997Z,-2.00
2019-02-06T04:09:53.148Z,-2.00
2019-02-06T04:13:58.949Z,-2.00
2019-02-06T04:18:03.980Z,-2.10
2019-02-06T04:22:09.112Z,-2.10
2019-02-06T04:26:13.985Z,-2.20
2019-02-06T04:30:19.600Z,-2.30
2019-02-06T04:34:24.438Z,-2.40
2019-02-06T04:38:29.268Z,-2.40
2019-02-06T04:42:34.146Z,-2.50
2019-02-06T04:46:39.010Z,-2.60
2019-02-06T04:50:43.933Z,-2.60
2019-02-06T04:54:49.026Z,-2.50
2019-02-06T04:58:53.917Z,-2.50
2019-02-06T05:02:58.747Z,-2.60
2019-02-06T05:07:03.584Z,-2.70
2019-02-06T05:11:08.425Z,-2.70
2019-02-06T05:15:14.995Z,-2.80
2019-02-06T05:19:19.814Z,-2.80
2019-02-06T05:23:24.652Z,-2.90
2019-02-06T05:27:29.642Z,-2.80
2019-02-06T05:31:34.436Z,-2.80
2019-02-06T05:35:39.245Z,-2.80
2019-02-06T05:39:44.376Z,-2.80
2019-02-06T05:43:49.211Z,-2.80
2019-02-06T05:47:54.050Z,-2.80
2019-02-06T05:51:58.987Z,-2.80
2019-02-06T05:56:04.334Z,-2.70
2019-02-06T06:00:15.003Z,-2.70
2019-02-06T06:04:19.959Z,-2.70
2019-02-06T06:08:25.511Z,-2.70
2019-02-06T06:12:30.820Z,-2.70
2019-02-06T06:16:36.305Z,-2.80
2019-02-06T06:20:41.153Z,-2.80
2019-02-06T06:24:46.328Z,-2.70
2019-02-06T06:28:51.232Z,-2.60
2019-02-06T06:32:56.108Z,-2.60
2019-02-06T06:37:02.958Z,-2.50
2019-02-06T06:41:07.519Z,-2.50
2019-02-06T06:45:20.560Z,-2.40
2019-02-06T06:49:25.435Z,-2.40
2019-02-06T06:53:30.340Z,-2.30
2019-02-06T06:57:35.275Z,-2.00
2019-02-06T07:01:40.387Z,-1.20
2019-02-06T07:05:45.223Z,-0.10
2019-02-06T07:09:51.051Z,1.20
2019-02-06T07:13:55.878Z,2.30
2019-02-06T07:18:00.897Z,2.70
2019-02-06T07:22:05.907Z,3.20
2019-02-06T07:26:10.860Z,3.50
2019-02-06T07:30:29.861Z,4.00
2019-02-06T07:34:35.023Z,4.60
2019-02-06T07:38:39.855Z,5.40
2019-02-06T07:42:47.037Z,6.10
2019-02-06T07:46:52.172Z,7.10
2019-02-06T07:50:57.263Z,8.20
2019-02-06T07:55:02.555Z,7.60
2019-02-06T07:59:07.789Z,8.20
2019-02-06T08:03:12.895Z,10.10
2019-02-06T08:07:18.035Z,11.90
2019-02-06T08:11:23.112Z,13.20
2019-02-06T08:15:28.023Z,13.70
2019-02-06T08:19:33.112Z,13.70
2019-02-06T08:23:38.231Z,14.20
2019-02-06T08:27:43.319Z,14.80
2019-02-06T08:31:48.229Z,16.20
2019-02-06T08:35:53.318Z,17.60
2019-02-06T08:39:58.439Z,17.30
2019-02-06T08:44:03.817Z,16.80
2019-02-06T08:48:08.901Z,15.30
2019-02-06T08:52:14.008Z,14.50
2019-02-06T08:56:19.118Z,14.10
2019-02-06T09:00:38.219Z,13.60
2019-02-06T09:04:54.222Z,13.70
2019-02-06T09:08:59.263Z,14.50
2019-02-06T09:12:57.463Z,15.30
2019-02-06T09:17:02.569Z,15.90
2019-02-06T09:21:07.692Z,16.00
2019-02-06T09:25:18.535Z,16.40
2019-02-06T09:29:25.021Z,16.50
2019-02-06T09:33:30.500Z,16.20
2019-02-06T09:37:35.611Z,16.30
2019-02-06T09:41:40.911Z,16.30
2019-02-06T09:45:46.027Z,16.70
2019-02-06T09:49:51.134Z,17.60
2019-02-06T09:53:55.951Z,18.10
2019-02-06T09:58:02.028Z,17.80
2019-02-06T10:02:09.420Z,18.20
2019-02-06T10:06:13.911Z,19.10
2019-02-06T10:10:21.529Z,20.10
2019-02-06T10:14:26.644Z,21.20
2019-02-06T10:18:31.934Z,20.60
2019-02-06T10:22:37.146Z,20.90
2019-02-06T10:26:42.215Z,21.00
2019-02-06T10:30:48.863Z,21.50
2019-02-06T10:34:54.072Z,21.00
2019-02-06T10:38:58.884Z,20.60
2019-02-06T10:43:04.157Z,19.40
2019-02-06T10:47:09.272Z,19.10
2019-02-06T10:51:14.751Z,19.20
2019-02-06T10:55:20.191Z,20.40
2019-02-06T10:59:25.347Z,21.50
2019-02-06T11:03:30.456Z,22.80
2019-02-06T11:07:35.564Z,22.50
2019-02-06T11:11:40.751Z,19.90
2019-02-06T11:15:45.843Z,19.10
2019-02-06T11:19:50.948Z,18.50
2019-02-06T11:23:55.752Z,18.40
2019-02-06T11:28:00.847Z,19.00
2019-02-06T11:32:06.255Z,18.90
2019-02-06T11:36:11.355Z,17.40
2019-02-06T11:40:19.227Z,18.30
2019-02-06T11:44:25.382Z,18.50
2019-02-06T11:48:30.523Z,18.50
2019-02-06T11:52:35.620Z,19.20
2019-02-06T11:56:40.784Z,18.30
2019-02-06T12:00:50.279Z,18.80
2019-02-06T12:04:55.387Z,16.80
2019-02-06T12:09:00.497Z,17.20
2019-02-06T12:13:07.359Z,17.10
2019-02-06T12:17:12.463Z,16.60
2019-02-06T12:21:18.163Z,14.90
2019-02-06T12:25:23.414Z,13.80
2019-02-06T12:29:28.484Z,14.30
2019-02-06T12:33:36.536Z,13.00
2019-02-06T12:37:40.179Z,12.00
2019-02-06T12:41:45.130Z,10.40
2019-02-06T12:45:50.017Z,8.70
2019-02-06T12:49:54.851Z,8.00
2019-02-06T12:53:59.823Z,7.40
2019-02-06T12:58:05.859Z,7.00
2019-02-06T13:02:11.064Z,6.80
2019-02-06T13:06:15.988Z,6.70
2019-02-06T13:10:32.937Z,6.60
2019-02-06T13:14:28.969Z,6.60
2019-02-06T13:18:33.797Z,6.50
2019-02-06T13:22:38.608Z,6.40
2019-02-06T13:26:44.285Z,6.50
2019-02-06T13:30:49.176Z,6.40
2019-02-06T13:34:53.975Z,6.30
2019-02-06T13:38:59.100Z,6.30
2019-02-06T13:43:04.318Z,6.20
2019-02-06T13:47:10.310Z,6.10
2019-02-06T13:51:19.022Z,6.10
2019-02-06T13:55:21.824Z,6.10
2019-02-06T13:59:26.992Z,6.00
2019-02-06T14:03:31.987Z,6.00
2019-02-06T14:07:37.038Z,6.00
2019-02-06T14:11:42.022Z,6.00
2019-02-06T14:15:48.076Z,5.90
2019-02-06T14:19:52.931Z,5.80
2019-02-06T14:24:01.086Z,5.90
2019-02-06T14:28:24.956Z,5.90
2019-02-06T14:32:58.947Z,6.00
2019-02-06T14:37:39.147Z,6.00
2019-02-06T14:42:10.063Z,6.00
2019-02-06T14:46:37.758Z,5.90
2019-02-06T14:50:58.016Z,5.80
2019-02-06T14:55:15.150Z,5.70
2019-02-06T14:59:29.582Z,5.60
2019-02-06T15:03:58.625Z,5.50
2019-02-06T15:08:12.519Z,5.30
2019-02-06T15:12:35.791Z,5.20
2019-02-06T15:17:01.907Z,5.00
2019-02-06T15:21:13.155Z,4.80
2019-02-06T15:25:37.750Z,4.60
2019-02-06T15:30:00.630Z,4.40
2019-02-06T15:34:33.056Z,4.30
2019-02-06T15:39:16.175Z,4.00
2019-02-06T15:43:41.026Z,3.80
2019-02-06T15:48:01.134Z,3.70
2019-02-06T15:52:18.498Z,3.60
2019-02-06T15:56:44.341Z,3.40
2019-02-06T16:01:18.585Z,3.20
2019-02-06T16:05:36.868Z,3.10
2019-02-06T16:09:54.083Z,2.90
2019-02-06T16:14:23.332Z,2.80
2019-02-06T16:18:37.682Z,2.60
2019-02-06T16:23:01.222Z,2.50
2019-02-06T16:27:22.449Z,2.40
2019-02-06T16:31:47.936Z,2.30
2019-02-06T16:36:17.343Z,2.20
2019-02-06T16:40:46.572Z,2.00
2019-02-06T16:44:55.615Z,2.00
2019-02-06T16:49:17.467Z,1.80
2019-02-06T16:53:32.649Z,1.60
2019-02-06T16:57:43.946Z,1.30
2019-02-06T17:01:58.376Z,1.10
2019-02-06T17:06:06.504Z,0.90
2019-02-06T17:10:47.310Z,0.70
2019-02-06T17:14:58.620Z,0.50
2019-02-06T17:19:06.725Z,0.40
2019-02-06T17:23:24.036Z,0.30
2019-02-06T17:27:41.283Z,0.20
2019-02-06T17:32:04.019Z,0.20
2019-02-06T17:36:30.554Z,0.20
2019-02-06T17:40:44.887Z,0.20
2019-02-06T17:44:59.156Z,0.00
2019-02-06T17:49:24.476Z,0.00
2019-02-06T17:53:41.682Z,-0.10
2019-02-06T17:57:47.764Z,-0.20
2019-02-06T18:01:52.833Z,-0.30
2019-02-06T18:05:59.678Z,-0.40
2019-02-06T18:10:07.845Z,-0.40
2019-02-06T18:14:14.922Z,-0.50
2019-02-06T18:18:19.789Z,-0.40
2019-02-06T18:26:42.478Z,-0.50
2019-02-06T18:30:47.760Z,-0.70
2019-02-06T18:34:52.627Z,-0.80
2019-02-06T18:38:57.584Z,-0.80
2019-02-06T18:43:03.247Z,-0.80
2019-02-06T18:47:08.506Z,-0.80
2019-02-06T18:51:13.332Z,-0.80
2019-02-06T18:55:21.065Z,-0.90
2019-02-06T18:59:25.123Z,-1.00
2019-02-06T19:03:39.005Z,-1.00
2019-02-06T19:07:44.239Z,-1.00
2019-02-06T19:11:49.328Z,-0.90
2019-02-06T19:15:56.589Z,-1.00
2019-02-06T19:20:01.037Z,-1.00
2019-02-06T19:24:06.235Z,-1.10
2019-02-06T19:28:11.046Z,-1.20
2019-02-06T19:32:16.663Z,-1.30
2019-02-06T19:36:21.611Z,-1.40
2019-02-06T19:40:26.441Z,-1.50
2019-02-06T19:44:31.324Z,-1.60
2019-02-06T19:48:36.239Z,-1.80
2019-02-06T19:52:41.593Z,-1.90
2019-02-06T19:56:46.444Z,-2.00
2019-02-06T20:00:51.286Z,-2.10
2019-02-06T20:04:56.266Z,-2.20
2019-02-06T20:09:01.094Z,-2.30
2019-02-06T20:13:11.325Z,-2.40
2019-02-06T20:17:14.095Z,-2.50
2019-02-06T20:21:18.974Z,-2.50
2019-02-06T20:25:23.803Z,-2.50
2019-02-06T20:29:28.632Z,-2.50
2019-02-06T20:33:33.440Z,-2.50
2019-02-06T20:37:38.732Z,-2.60
2019-02-06T20:41:43.541Z,-2.70
2019-02-06T20:45:48.495Z,-2.90
2019-02-06T20:49:53.331Z,-3.00
2019-02-06T20:53:58.146Z,-3.10
2019-02-06T20:58:03.271Z,-3.20
2019-02-06T21:02:08.345Z,-3.40
2019-02-06T21:06:13.452Z,-3.40
2019-02-06T21:10:20.323Z,-3.50
2019-02-06T21:14:25.171Z,-3.50
2019-02-06T21:18:29.960Z,-3.60
2019-02-06T21:22:34.852Z,-3.70
2019-02-06T21:26:39.679Z,-3.80
2019-02-06T21:30:46.855Z,-3.80
2019-02-06T21:34:51.050Z,-3.80
2019-02-06T21:38:55.930Z,-3.90
2019-02-06T21:43:01.085Z,-4.00
2019-02-06T21:47:05.923Z,-4.00
2019-02-06T21:51:11.060Z,-4.00
2019-02-06T21:55:21.319Z,-4.00
2019-02-06T21:59:26.128Z,-3.80
2019-02-06T22:03:30.964Z,-3.70
2019-02-06T22:07:36.118Z,-3.70
2019-02-06T22:11:41.314Z,-3.70
2019-02-06T22:15:46.559Z,-3.80
2019-02-06T22:19:51.460Z,-3.80
2019-02-06T22:23:56.532Z,-3.90
2019-02-06T22:28:01.368Z,-4.00
2019-02-06T22:32:06.253Z,-4.00
2019-02-06T22:36:11.081Z,-4.10
2019-02-06T22:40:18.616Z,-4.30
2019-02-06T22:44:23.439Z,-4.40
2019-02-06T22:48:28.575Z,-4.50
2019-02-06T22:52:33.411Z,-4.50
2019-02-06T22:56:41.147Z,-4.60
2019-02-06T23:01:00.148Z,-4.60
2019-02-06T23:05:06.460Z,-4.60
2019-02-06T23:09:11.595Z,-4.40
2019-02-06T23:13:16.688Z,-4.40
2019-02-06T23:17:21.583Z,-4.50
2019-02-06T23:21:26.392Z,-4.60
2019-02-06T23:25:31.257Z,-4.60
2019-02-06T23:29:36.084Z,-4.60
2019-02-06T23:33:40.919Z,-4.70
2019-02-06T23:37:46.202Z,-4.70
2019-02-06T23:41:51.035Z,-4.80
2019-02-06T23:45:55.860Z,-4.70
2019-02-06T23:50:00.739Z,-4.60
2019-02-06T23:54:05.875Z,-4.60
2019-02-06T23:58:10.719Z,-4.60
